Time;durP1;ratioP1;P1;durP2;ratioP2;P2;SDS_P1;SDS_P2;PMS_P1;PMS_P2;Temp;Humidity;BMP_temperature;BMP_pressure;BME280_temperature;BME280_humidity;BME280_pressure;Samples;Min_cycle;Max_cycle;Signal;HPM_P1;HPM_P2
2021/12/04 00:01:22;;;;;;;;;;;;;;;;;;5075967;28;19930;-72
2021/12/04 00:03:47;;;;;;;;;;;;;;;;;;5075767;28;20379;-72
2021/12/04 00:06:38;;;;;;;;;;;;;;;;;;5075816;28;20071;-72
2021/12/04 00:09:04;;;;;;;;;;;;;;;;;;5075176;28;19990;-72
2021/12/04 00:11:30;;;;;;;;;;;;;;;;;;5075699;28;19920;-72
2021/12/04 00:13:56;;;;;;;;;;;;;;;;;;5075759;28;19908;-72
2021/12/04 00:16:21;;;;;;;;;;;;;;;;;;5076034;28;20356;-72
2021/12/04 00:18:47;;;;;;;;;;;;;;;;;;5075535;28;19912;-71
2021/12/04 00:21:13;;;;;;;;;;;;;;;;;;5075063;28;19948;-72
2021/12/04 00:23:39;;;;;;;;;;;;;;;;;;5075610;28;19912;-72
2021/12/04 00:26:05;;;;;;;;;;;;;;;;;;5075413;28;20337;-72
2021/12/04 00:28:31;;;;;;;;;;;;;;;;;;5075421;28;19916;-72
2021/12/04 00:30:58;;;;;;;;;;;;;;;;;;5075553;28;19999;-71
2021/12/04 00:33:29;;;;;;;;;;;;;;;;;;5057363;28;19956;-71
2021/12/04 00:36:01;;;;;;;;;;;;;;;;;;5057433;28;20007;-72
2021/12/04 00:49:25;;;;;;;;;;;;;;;;;;5075236;28;19942;-72
2021/12/04 00:51:54;;;;;;;;;;;;;;;;;;5075036;28;20364;-72
2021/12/04 00:54:19;;;;;;;;;;;;;;;;;;5074984;28;19931;-72
2021/12/04 00:56:45;;;;;;;;;;;;;;;;;;5057137;28;19926;-72
2021/12/04 00:59:11;;;;;;;;;;;;;;;;;;5074301;28;19920;-72
2021/12/04 01:01:38;;;;;;;;;;;;;;;;;;5084181;28;19995;-72
2021/12/04 01:04:04;;;;;;;;;;;;;;;;;;5082913;28;20378;-71
2021/12/04 01:06:30;;;;;;;;;;;;;;;;;;5085997;28;20000;-72
2021/12/04 01:08:56;;;;;;;;;;;;;;;;;;5082027;28;20254;-71
2021/12/04 01:11:21;;;;;;;;;;;;;;;;;;5085090;28;20163;-72
2021/12/04 01:13:47;;;;;;;;;;;;;;;;;;5083418;28;19920;-72
2021/12/04 01:16:14;;;;;;;;;;;;;;;;;;5083907;28;19992;-72
2021/12/04 01:18:40;;;;;;;;;;;;;;;;;;5083932;28;19943;-72
2021/12/04 01:21:06;;;;;;;;;;;;;;;;;;5082756;28;19920;-71
2021/12/04 01:23:32;;;;;;;;;;;;;;;;;;5085135;28;19916;-71
2021/12/04 01:25:58;;;;;;;;;;;;;;;;;;5082217;28;20387;-72
2021/12/04 01:28:23;;;;;;;;;;;;;;;;;;5084999;28;19938;-72
2021/12/04 01:30:49;;;;;;;;;;;;;;;;;;5082679;28;19966;-72
2021/12/04 01:33:15;;;;;;;;;;;;;;;;;;5083622;28;19923;-72
2021/12/04 01:35:41;;;;;;;;;;;;;;;;;;5083810;28;20291;-71
2021/12/04 01:38:07;;;;;;;;;;;;;;;;;;5082093;28;19955;-72
2021/12/04 01:40:33;;;;;;;;;;;;;;;;;;5066280;28;19912;-72
2021/12/04 01:42:59;;;;;;;;;;;;;;;;;;5063688;28;20007;-72
2021/12/04 01:45:24;;;;;;;;;;;;;;;;;;5084665;28;20003;-71
2021/12/04 01:47:50;;;;;;;;;;;;;;;;;;5082225;28;19920;-72
2021/12/04 01:50:16;;;;;;;;;;;;;;;;;;5083730;28;20307;-72
2021/12/04 01:52:42;;;;;;;;;;;;;;;;;;5082935;28;19915;-72
2021/12/04 01:55:08;;;;;;;;;;;;;;;;;;5082411;28;19913;-72
2021/12/04 01:57:34;;;;;;;;;;;;;;;;;;5066316;28;19957;-72
2021/12/04 02:00:01;;;;;;;;;;;;;;;;;;5081450;28;20369;-71
2021/12/04 02:02:26;;;;;;;;;;;;;;;;;;5084688;28;19916;-72
2021/12/04 02:04:52;;;;;;;;;;;;;;;;;;5081687;28;20375;-71
2021/12/04 02:07:20;;;;;;;;;;;;;;;;;;5082920;28;20054;-71
2021/12/04 02:09:46;;;;;;;;;;;;;;;;;;5082534;28;19973;-72
2021/12/04 02:12:12;;;;;;;;;;;;;;;;;;5082395;28;19925;-72
2021/12/04 02:14:38;;;;;;;;;;;;;;;;;;5065469;28;19919;-71
2021/12/04 02:17:04;;;;;;;;;;;;;;;;;;5063449;28;19912;-72
2021/12/04 02:19:29;;;;;;;;;;;;;;;;;;5066142;28;19942;-72
2021/12/04 02:21:55;;;;;;;;;;;;;;;;;;5080808;28;20268;-72
2021/12/04 02:24:21;;;;;;;;;;;;;;;;;;5083708;28;19927;-72
2021/12/04 02:26:47;;;;;;;;;;;;;;;;;;5064102;28;19912;-71
2021/12/04 02:29:13;;;;;;;;;;;;;;;;;;5064369;28;19920;-72
2021/12/04 02:31:39;;;;;;;;;;;;;;;;;;5083141;28;19912;-72
2021/12/04 02:34:05;;;;;;;;;;;;;;;;;;5081259;28;19920;-72
2021/12/04 02:36:31;;;;;;;;;;;;;;;;;;5084223;28;20320;-72
2021/12/04 02:38:56;;;;;;;;;;;;;;;;;;5080872;28;19919;-72
2021/12/04 02:41:22;;;;;;;;;;;;;;;;;;5083417;28;20014;-72
2021/12/04 02:43:48;;;;;;;;;;;;;;;;;;5063697;28;20423;-72
2021/12/04 02:46:14;;;;;;;;;;;;;;;;;;5082475;28;20288;-72
2021/12/04 02:48:41;;;;;;;;;;;;;;;;;;5082617;28;19939;-72
2021/12/04 02:51:07;;;;;;;;;;;;;;;;;;5081274;28;20356;-72
2021/12/04 02:53:33;;;;;;;;;;;;;;;;;;5083624;28;19996;-71
2021/12/04 02:55:59;;;;;;;;;;;;;;;;;;5080684;28;20371;-72
2021/12/04 02:58:25;;;;;;;;;;;;;;;;;;5083840;28;19912;-71
2021/12/04 03:00:51;;;;;;;;;;;;;;;;;;5081012;28;19990;-72
2021/12/04 03:03:18;;;;;;;;;;;;;;;;;;5082575;28;19924;-72
2021/12/04 03:05:50;;;;;;;;;;;;;;;;;;5063815;28;19912;-72
2021/12/04 03:08:15;;;;;;;;;;;;;;;;;;5082459;28;19952;-72
2021/12/04 03:10:41;;;;;;;;;;;;;;;;;;5082242;28;19974;-72
2021/12/04 03:13:09;;;;;;;;;;;;;;;;;;5081142;28;19924;-72
2021/12/04 03:15:38;;;;;;;;;;;;;;;;;;5083204;28;19912;-72
2021/12/04 03:18:04;;;;;;;;;;;;;;;;;;5080575;28;19912;-72
2021/12/04 03:20:31;;;;;;;;;;;;;;;;;;5086975;28;19919;-71
2021/12/04 03:23:00;;;;;;;;;;;;;;;;;;5084294;28;19939;-71
2021/12/04 03:25:26;;;;;;;;;;;;;;;;;;5079845;28;19913;-72
2021/12/04 03:27:52;;;;;;;;;;;;;;;;;;5087152;28;19912;-72
2021/12/04 03:30:43;;;;;;;;;;;;;;;;;;5085186;28;20372;-71
2021/12/04 03:41:07;;;;;;;;;;;;;;;;;;5080700;28;20171;-72
2021/12/04 03:43:32;;;;;;;;;;;;;;;;;;5087168;28;19912;-71
2021/12/04 03:46:03;;;;;;;;;;;;;;;;;;5083732;28;19965;-72
2021/12/04 03:50:57;;;;;;;;;;;;;;;;;;5080232;28;20003;-71
2021/12/04 03:53:23;;;;;;;;;;;;;;;;;;5068740;28;20000;-72
2021/12/04 03:55:52;;;;;;;;;;;;;;;;;;5084544;28;19927;-72
2021/12/04 03:58:18;;;;;;;;;;;;;;;;;;5086031;28;19923;-72
2021/12/04 04:00:44;;;;;;;;;;;;;;;;;;5085237;28;19913;-72
2021/12/04 04:03:09;;;;;;;;;;;;;;;;;;5066656;28;20015;-72
2021/12/04 04:05:35;;;;;;;;;;;;;;;;;;5086382;28;20338;-72
2021/12/04 04:08:01;;;;;;;;;;;;;;;;;;5083448;28;20313;-71
2021/12/04 04:10:27;;;;;;;;;;;;;;;;;;5086905;28;19923;-71
2021/12/04 04:12:53;;;;;;;;;;;;;;;;;;5065495;28;19948;-72
2021/12/04 04:15:21;;;;;;;;;;;;;;;;;;5085608;28;19913;-72
2021/12/04 04:17:47;;;;;;;;;;;;;;;;;;5084077;28;19913;-72
2021/12/04 04:20:13;;;;;;;;;;;;;;;;;;5084920;28;19912;-72
2021/12/04 04:22:39;;;;;;;;;;;;;;;;;;5085315;28;20446;-71
2021/12/04 04:25:04;;;;;;;;;;;;;;;;;;5083623;28;19919;-72
2021/12/04 04:27:30;;;;;;;;;;;;;;;;;;5068735;28;19912;-72
2021/12/04 04:29:56;;;;;;;;;;;;;;;;;;5082600;28;19927;-72
2021/12/04 04:32:24;;;;;;;;;;;;;;;;;;5085781;28;19923;-72
2021/12/04 04:34:53;;;;;;;;;;;;;;;;;;5095590;28;19908;-71
2021/12/04 05:12:29;;;;;;;;;;;;;;;;;;5094890;28;19928;-71
2021/12/04 05:15:00;;;;;;;;;;;;;;;;;;5094725;28;19908;-72
2021/12/04 05:17:41;;;;;;;;;;;;;;;;;;5094775;28;20354;-71
2021/12/04 05:20:07;;;;;;;;;;;;;;;;;;5076646;28;19908;-72
2021/12/04 05:22:33;;;;;;;;;;;;;;;;;;5094768;28;19908;-72
2021/12/04 05:24:59;;;;;;;;;;;;;;;;;;5094524;28;19946;-72
2021/12/04 05:27:25;;;;;;;;;;;;;;;;;;5094054;28;19944;-71
2021/12/04 05:29:51;;;;;;;;;;;;;;;;;;5076476;28;19916;-72
2021/12/04 05:32:16;;;;;;;;;;;;;;;;;;5095064;28;19995;-72
2021/12/04 05:34:42;;;;;;;;;;;;;;;;;;5094574;28;19908;-72
2021/12/04 05:37:08;;;;;;;;;;;;;;;;;;5094605;28;19923;-72
2021/12/04 05:39:34;;;;;;;;;;;;;;;;;;5094474;28;20279;-72
2021/12/04 05:42:00;;;;;;;;;;;;;;;;;;5075372;28;19909;-72
2021/12/04 05:44:27;;;;;;;;;;;;;;;;;;5076170;28;20007;-72
2021/12/04 05:46:55;;;;;;;;;;;;;;;;;;5094190;28;20283;-72
2021/12/04 05:56:59;;;;;;;;;;;;;;;;;;5094039;28;19908;-72
2021/12/04 05:59:25;;;;;;;;;;;;;;;;;;5094128;28;19910;-71
2021/12/04 06:01:51;;;;;;;;;;;;;;;;;;5094038;28;19908;-71
2021/12/04 06:04:17;;;;;;;;;;;;;;;;;;5094063;28;19908;-72
2021/12/04 06:06:44;;;;;;;;;;;;;;;;;;5093923;28;20439;-71
2021/12/04 06:09:09;;;;;;;;;;;;;;;;;;5093936;28;20334;-72
2021/12/04 06:11:35;;;;;;;;;;;;;;;;;;5093359;28;19920;-71
2021/12/04 06:14:01;;;;;;;;;;;;;;;;;;5093927;28;20366;-72
2021/12/04 06:16:27;;;;;;;;;;;;;;;;;;5075658;28;19908;-72
2021/12/04 06:18:54;;;;;;;;;;;;;;;;;;5075567;28;19915;-72
2021/12/04 06:24:04;;;;;;;;;;;;;;;;;;5093730;28;20280;-72
2021/12/04 06:26:30;;;;;;;;;;;;;;;;;;5093734;28;19909;-72
2021/12/04 06:28:56;;;;;;;;;;;;;;;;;;5093555;28;20318;-72
2021/12/04 06:31:22;;;;;;;;;;;;;;;;;;5093618;28;19912;-72
2021/12/04 06:33:48;;;;;;;;;;;;;;;;;;5093459;28;19904;-71
2021/12/04 06:36:14;;;;;;;;;;;;;;;;;;5093303;28;20291;-72
2021/12/04 06:38:40;;;;;;;;;;;;;;;;;;5093558;28;19904;-72
2021/12/04 06:41:05;;;;;;;;;;;;;;;;;;5093368;28;19916;-72
2021/12/04 06:43:31;;;;;;;;;;;;;;;;;;5093416;28;19940;-72
2021/12/04 06:45:59;;;;;;;;;;;;;;;;;;5093259;28;20288;-71
2021/12/04 06:48:31;;;;;;;;;;;;;;;;;;5074960;28;19912;-72
2021/12/04 06:53:54;;;;;;;;;;;;;;;;;;5072987;28;19912;-71
2021/12/04 06:56:22;;;;;;;;;;;;;;;;;;5072948;28;19909;-72
2021/12/04 06:58:48;;;;;;;;;;;;;;;;;;5073192;28;19908;-72
2021/12/04 07:01:14;;;;;;;;;;;;;;;;;;5054303;28;20019;-72
2021/12/04 07:03:40;;;;;;;;;;;;;;;;;;5054553;28;19909;-72
2021/12/04 07:06:05;;;;;;;;;;;;;;;;;;5072434;28;19959;-72
2021/12/04 07:08:31;;;;;;;;;;;;;;;;;;5072375;28;20400;-72
2021/12/04 07:10:57;;;;;;;;;;;;;;;;;;5072282;28;19924;-72
2021/12/04 07:13:23;;;;;;;;;;;;;;;;;;5072973;28;19957;-72
2021/12/04 07:15:58;;;;;;;;;;;;;;;;;;5054360;28;19991;-72
2021/12/04 07:18:24;;;;;;;;;;;;;;;;;;5072981;28;19908;-71
2021/12/04 07:20:50;;;;;;;;;;;;;;;;;;5054614;28;19923;-72
2021/12/04 07:23:16;;;;;;;;;;;;;;;;;;5072880;28;19974;-71
2021/12/04 07:25:41;;;;;;;;;;;;;;;;;;5072765;28;20297;-72
2021/12/04 07:28:08;;;;;;;;;;;;;;;;;;5075055;28;19915;-70
2021/12/04 07:30:34;;;;;;;;;;;;;;;;;;5057600;28;19919;-70
2021/12/04 07:32:59;;;;;;;;;;;;;;;;;;5072555;28;20280;-72
2021/12/04 07:35:25;;;;;;;;;;;;;;;;;;5054377;28;19908;-73
2021/12/04 07:37:51;;;;;;;;;;;;;;;;;;5072257;28;19919;-70
2021/12/04 07:40:17;;;;;;;;;;;;;;;;;;5072129;28;19908;-72
2021/12/04 07:42:43;;;;;;;;;;;;;;;;;;5071863;28;19928;-72
2021/12/04 07:45:09;;;;;;;;;;;;;;;;;;5071833;28;19923;-72
2021/12/04 07:47:35;;;;;;;;;;;;;;;;;;5069488;28;20437;-70
2021/12/04 07:50:01;;;;;;;;;;;;;;;;;;5072087;28;19916;-70
2021/12/04 07:52:27;;;;;;;;;;;;;;;;;;5072459;28;19915;-72
2021/12/04 07:54:53;;;;;;;;;;;;;;;;;;5072573;28;20280;-72
2021/12/04 07:57:20;;;;;;;;;;;;;;;;;;5054222;28;19904;-70
2021/12/04 07:59:46;;;;;;;;;;;;;;;;;;5072321;28;19908;-72
2021/12/04 08:02:12;;;;;;;;;;;;;;;;;;5072149;28;20019;-72
2021/12/04 08:04:38;;;;;;;;;;;;;;;;;;5072489;28;19952;-70
2021/12/04 08:07:04;;;;;;;;;;;;;;;;;;5076116;28;19908;-70
2021/12/04 08:09:30;;;;;;;;;;;;;;;;;;5075592;28;19916;-71
2021/12/04 08:11:56;;;;;;;;;;;;;;;;;;5075526;28;19921;-71
2021/12/04 08:14:22;;;;;;;;;;;;;;;;;;5075782;28;20288;-71
2021/12/04 08:16:48;;;;;;;;;;;;;;;;;;5075868;28;19954;-71
2021/12/04 08:19:13;;;;;;;;;;;;;;;;;;5075904;28;19908;-71
2021/12/04 08:21:39;;;;;;;;;;;;;;;;;;5075682;28;19913;-70
2021/12/04 08:24:06;;;;;;;;;;;;;;;;;;5075594;28;20253;-70
2021/12/04 08:26:32;;;;;;;;;;;;;;;;;;5075604;28;19912;-72
2021/12/04 08:28:58;;;;;;;;;;;;;;;;;;5075561;28;19917;-71
2021/12/04 08:31:24;;;;;;;;;;;;;;;;;;5075302;28;19944;-72
2021/12/04 08:33:50;;;;;;;;;;;;;;;;;;5075578;28;19908;-72
2021/12/04 08:36:15;;;;;;;;;;;;;;;;;;5075498;28;19909;-72
2021/12/04 08:38:46;;;;;;;;;;;;;;;;;;5075623;28;20085;-70
2021/12/04 08:41:12;;;;;;;;;;;;;;;;;;5075213;28;19975;-72
2021/12/04 08:43:38;;;;;;;;;;;;;;;;;;5057428;28;20364;-73
2021/12/04 08:46:03;;;;;;;;;;;;;;;;;;5057246;28;19909;-72
2021/12/04 08:48:31;;;;;;;;;;;;;;;;;;5075174;28;19917;-72
2021/12/04 08:50:58;;;;;;;;;;;;;;;;;;5075212;28;19916;-72
2021/12/04 08:53:24;;;;;;;;;;;;;;;;;;5075096;28;19926;-72
2021/12/04 08:55:50;;;;;;;;;;;;;;;;;;5075136;28;19977;-73
2021/12/04 08:58:16;;;;;;;;;;;;;;;;;;5075061;28;19927;-73
2021/12/04 09:00:46;;;;;;;;;;;;;;;;;;5075105;28;19997;-72
2021/12/04 09:03:12;;;;;;;;;;;;;;;;;;5074927;28;20030;-71
2021/12/04 09:05:38;;;;;;;;;;;;;;;;;;5074833;28;19958;-71
2021/12/04 09:08:04;;;;;;;;;;;;;;;;;;5075160;28;19904;-70
2021/12/04 09:10:30;;;;;;;;;;;;;;;;;;5075422;28;20319;-70
2021/12/04 09:12:55;;;;;;;;;;;;;;;;;;5075688;28;19920;-70
2021/12/04 09:15:21;;;;;;;;;;;;;;;;;;5074818;28;19916;-70
2021/12/04 09:17:47;;;;;;;;;;;;;;;;;;5073888;28;19914;-72
2021/12/04 09:20:16;;;;;;;;;;;;;;;;;;5074151;28;19931;-72
2021/12/04 09:22:42;;;;;;;;;;;;;;;;;;5074354;28;19909;-71
2021/12/04 09:25:09;;;;;;;;;;;;;;;;;;5074060;28;19958;-71
2021/12/04 09:36:16;;;;;;;;;;;;;;;;;;5074410;28;20410;-71
2021/12/04 10:22:06;;;;;;;;;;;;;;;;;;5070850;28;19908;-72
2021/12/04 10:33:00;;;;;;;;;;;;;;;;;;5028614;28;19962;-72
2021/12/04 10:35:26;;;;;;;;;;;;;;;;;;5073073;28;19908;-72
2021/12/04 10:37:52;;;;;;;;;;;;;;;;;;5072900;28;19999;-72
2021/12/04 10:40:18;;;;;;;;;;;;;;;;;;5073106;28;19908;-72
2021/12/04 10:42:45;;;;;;;;;;;;;;;;;;5073207;28;19915;-72
2021/12/04 10:45:11;;;;;;;;;;;;;;;;;;5073101;28;19909;-72
2021/12/04 10:47:37;;;;;;;;;;;;;;;;;;5072952;28;20000;-72
2021/12/04 10:50:25;;;;;;;;;;;;;;;;;;5072698;28;20073;-71
2021/12/04 10:52:56;;;;;;;;;;;;;;;;;;5073168;28;19909;-71
2021/12/04 11:03:05;;;;;;;;;;;;;;;;;;5073088;28;19932;-72
2021/12/04 11:18:39;;;;;;;;;;;;;;;;;;5072873;28;20313;-72
2021/12/04 11:19:29;;;;;;;;;;;;;;;;;;5072454;28;19962;-71
2021/12/04 11:22:07;;;;;;;;;;;;;;;;;;5073389;28;19919;-72
2021/12/04 11:27:30;;;;;;;;;;;;;;;;;;5073096;28;19913;-72
2021/12/04 11:36:15;;;;;;;;;;;;;;;;;;5010528;28;19920;-71
2021/12/04 11:46:45;;;;;;;;;;;;;;;;;;5063118;28;19932;-72
2021/12/04 11:49:11;;;;;;;;;;;;;;;;;;5076285;28;20286;-72
2021/12/04 11:51:37;;;;;;;;;;;;;;;;;;5076150;28;19908;-72
2021/12/04 11:54:03;;;;;;;;;;;;;;;;;;5058110;28;20011;-72
2021/12/04 11:56:29;;;;;;;;;;;;;;;;;;5074830;28;20262;-72
2021/12/04 11:58:55;;;;;;;;;;;;;;;;;;5074604;28;19909;-71
2021/12/04 12:01:20;;;;;;;;;;;;;;;;;;5075708;28;19909;-72
2021/12/04 12:03:46;;;;;;;;;;;;;;;;;;5074146;28;19932;-72
2021/12/04 12:06:12;;;;;;;;;;;;;;;;;;5073106;28;19919;-71
2021/12/04 12:08:38;;;;;;;;;;;;;;;;;;5073876;28;20435;-72
2021/12/04 12:11:04;;;;;;;;;;;;;;;;;;5071371;28;19956;-71
2021/12/04 12:13:30;;;;;;;;;;;;;;;;;;5073632;28;20384;-71
2021/12/04 12:15:56;;;;;;;;;;;;;;;;;;5075488;28;19951;-71
2021/12/04 12:18:22;;;;;;;;;;;;;;;;;;5075550;28;19934;-71
2021/12/04 12:20:57;;;;;;;;;;;;;;;;;;5075801;28;19908;-71
2021/12/04 12:23:27;;;;;;;;;;;;;;;;;;5075814;28;19904;-72
2021/12/04 12:26:06;;;;;;;;;;;;;;;;;;5075374;28;19962;-72
2021/12/04 12:34:07;;;;;;;;;;;;;;;;;;5075079;28;19919;-71
2021/12/04 12:36:33;;;;;;;;;;;;;;;;;;5072681;28;19912;-71
2021/12/04 12:38:59;;;;;;;;;;;;;;;;;;5075051;28;20318;-71
2021/12/04 12:41:25;;;;;;;;;;;;;;;;;;5075071;28;19908;-71
2021/12/04 12:43:51;;;;;;;;;;;;;;;;;;5075147;28;19958;-71
2021/12/04 12:46:17;;;;;;;;;;;;;;;;;;5075366;28;19932;-71
2021/12/04 12:48:43;;;;;;;;;;;;;;;;;;5075160;28;19920;-71
2021/12/04 12:51:09;;;;;;;;;;;;;;;;;;5074316;28;19922;-71
2021/12/04 12:53:35;;;;;;;;;;;;;;;;;;5073921;28;19908;-71
2021/12/04 12:56:00;;;;;;;;;;;;;;;;;;5056768;28;19913;-71
2021/12/04 12:58:27;;;;;;;;;;;;;;;;;;5074943;28;19909;-71
2021/12/04 13:11:51;;;;;;;;;;;;;;;;;;5074631;28;20344;-71
2021/12/04 13:14:17;;;;;;;;;;;;;;;;;;5056805;28;20186;-70
2021/12/04 13:16:43;;;;;;;;;;;;;;;;;;5074780;28;20280;-74
2021/12/04 13:19:11;;;;;;;;;;;;;;;;;;5074723;28;19909;-73
2021/12/04 13:21:38;;;;;;;;;;;;;;;;;;5074492;28;20210;-72
2021/12/04 13:24:04;;;;;;;;;;;;;;;;;;5057117;28;19916;-76
2021/12/04 13:26:30;;;;;;;;;;;;;;;;;;5074408;28;19908;-74
2021/12/04 13:28:58;;;;;;;;;;;;;;;;;;5074395;28;19917;-74
2021/12/04 13:31:24;;;;;;;;;;;;;;;;;;5074284;28;19909;-74
2021/12/04 13:33:49;;;;;;;;;;;;;;;;;;5074361;28;20311;-74
2021/12/04 13:36:15;;;;;;;;;;;;;;;;;;5074438;28;19953;-74
2021/12/04 13:38:41;;;;;;;;;;;;;;;;;;5073737;28;19954;-74
2021/12/04 13:41:07;;;;;;;;;;;;;;;;;;5073431;28;19909;-74
2021/12/04 13:43:33;;;;;;;;;;;;;;;;;;5074188;28;20360;-74
2021/12/04 13:45:59;;;;;;;;;;;;;;;;;;5073092;28;19920;-75
2021/12/04 13:48:25;;;;;;;;;;;;;;;;;;5073515;28;19915;-74
2021/12/04 13:50:51;;;;;;;;;;;;;;;;;;5073668;28;19994;-74
2021/12/04 13:53:17;;;;;;;;;;;;;;;;;;5073424;28;19923;-74
2021/12/04 13:55:43;;;;;;;;;;;;;;;;;;5073569;28;19912;-74
2021/12/04 13:58:09;;;;;;;;;;;;;;;;;;5073453;28;20353;-74
2021/12/04 14:00:35;;;;;;;;;;;;;;;;;;5073546;28;19937;-74
2021/12/04 14:03:00;;;;;;;;;;;;;;;;;;5073087;28;19908;-74
2021/12/04 14:05:26;;;;;;;;;;;;;;;;;;5073639;28;19908;-74
2021/12/04 14:07:53;;;;;;;;;;;;;;;;;;5073729;28;20273;-75
2021/12/04 14:10:19;;;;;;;;;;;;;;;;;;5055472;28;19916;-74
2021/12/04 14:12:45;;;;;;;;;;;;;;;;;;5073529;28;19920;-75
2021/12/04 14:15:11;;;;;;;;;;;;;;;;;;5073601;28;19913;-75
2021/12/04 14:17:37;;;;;;;;;;;;;;;;;;5072864;28;19920;-75
2021/12/04 14:20:02;;;;;;;;;;;;;;;;;;5073677;28;19919;-75
2021/12/04 14:22:28;;;;;;;;;;;;;;;;;;5073446;28;20288;-75
2021/12/04 14:24:57;;;;;;;;;;;;;;;;;;5055436;28;19908;-75
2021/12/04 14:27:23;;;;;;;;;;;;;;;;;;5073543;28;19960;-74
2021/12/04 14:29:48;;;;;;;;;;;;;;;;;;5073477;28;20005;-75
2021/12/04 14:32:16;;;;;;;;;;;;;;;;;;5073246;28;19912;-75
2021/12/04 14:34:42;;;;;;;;;;;;;;;;;;5073180;28;19999;-75
2021/12/04 14:37:10;;;;;;;;;;;;;;;;;;5072909;28;20407;-74
2021/12/04 14:39:36;;;;;;;;;;;;;;;;;;5073193;28;19951;-75
2021/12/04 14:42:02;;;;;;;;;;;;;;;;;;5072742;28;19927;-75
2021/12/04 14:44:28;;;;;;;;;;;;;;;;;;5073172;28;19909;-75
2021/12/04 14:46:54;;;;;;;;;;;;;;;;;;5073135;28;19912;-75
2021/12/04 14:49:20;;;;;;;;;;;;;;;;;;5072689;28;19917;-75
2021/12/04 14:51:46;;;;;;;;;;;;;;;;;;5072669;28;20470;-76
2021/12/04 14:54:12;;;;;;;;;;;;;;;;;;5073126;28;19913;-75
2021/12/04 14:56:38;;;;;;;;;;;;;;;;;;5073131;28;19909;-75
2021/12/04 14:59:04;;;;;;;;;;;;;;;;;;5055043;28;19909;-74
2021/12/04 15:01:32;;;;;;;;;;;;;;;;;;5072894;28;19913;-74
2021/12/04 15:03:59;;;;;;;;;;;;;;;;;;5073164;28;19909;-75
2021/12/04 15:06:25;;;;;;;;;;;;;;;;;;5072453;28;19908;-74
2021/12/04 15:08:54;;;;;;;;;;;;;;;;;;5072779;28;19916;-74
2021/12/04 15:11:21;;;;;;;;;;;;;;;;;;5072732;28;19923;-75
2021/12/04 15:13:53;;;;;;;;;;;;;;;;;;5073367;28;19915;-75
2021/12/04 15:16:25;;;;;;;;;;;;;;;;;;5076857;28;19966;-75
2021/12/04 15:18:52;;;;;;;;;;;;;;;;;;5058887;28;19909;-76
2021/12/04 15:21:19;;;;;;;;;;;;;;;;;;5059156;28;19909;-75
2021/12/04 15:23:45;;;;;;;;;;;;;;;;;;5076994;28;20319;-75
2021/12/04 15:26:11;;;;;;;;;;;;;;;;;;5076894;28;19909;-75
2021/12/04 15:28:37;;;;;;;;;;;;;;;;;;5076642;28;19934;-76
2021/12/04 15:31:03;;;;;;;;;;;;;;;;;;5076821;28;19914;-75
2021/12/04 15:33:29;;;;;;;;;;;;;;;;;;5058681;28;19916;-76
2021/12/04 15:35:55;;;;;;;;;;;;;;;;;;5058900;28;20310;-75
2021/12/04 15:38:33;;;;;;;;;;;;;;;;;;5077004;28;19992;-75
2021/12/04 15:41:12;;;;;;;;;;;;;;;;;;5076447;28;20384;-75
2021/12/04 15:43:59;;;;;;;;;;;;;;;;;;5076279;28;20011;-75
2021/12/04 15:49:12;;;;;;;;;;;;;;;;;;5076386;28;19924;-76
2021/12/04 15:54:12;;;;;;;;;;;;;;;;;;5076615;28;19913;-75
2021/12/04 15:56:44;;;;;;;;;;;;;;;;;;5058497;28;19918;-76
2021/12/04 15:59:10;;;;;;;;;;;;;;;;;;5075683;28;19908;-75
2021/12/04 16:01:36;;;;;;;;;;;;;;;;;;5058141;28;19915;-76
2021/12/04 16:04:02;;;;;;;;;;;;;;;;;;5076100;28;19912;-75
2021/12/04 16:06:27;;;;;;;;;;;;;;;;;;5076114;28;19908;-76
2021/12/04 16:08:53;;;;;;;;;;;;;;;;;;5075843;28;19927;-75
2021/12/04 16:11:19;;;;;;;;;;;;;;;;;;5075536;28;20268;-75
2021/12/04 16:13:49;;;;;;;;;;;;;;;;;;5076049;28;19909;-76
2021/12/04 16:16:14;;;;;;;;;;;;;;;;;;5075863;28;19908;-75
2021/12/04 16:18:41;;;;;;;;;;;;;;;;;;5075619;28;19916;-75
2021/12/04 16:21:07;;;;;;;;;;;;;;;;;;5057613;28;19908;-75
2021/12/04 16:23:33;;;;;;;;;;;;;;;;;;5075584;28;19908;-75
2021/12/04 16:26:00;;;;;;;;;;;;;;;;;;5075099;28;19919;-76
2021/12/04 16:31:10;;;;;;;;;;;;;;;;;;5075515;28;19912;-74
2021/12/04 16:33:41;;;;;;;;;;;;;;;;;;5075737;28;19909;-74
2021/12/04 16:36:22;;;;;;;;;;;;;;;;;;5075531;28;19908;-74
2021/12/04 16:38:48;;;;;;;;;;;;;;;;;;5075652;28;19955;-76
2021/12/04 16:41:15;;;;;;;;;;;;;;;;;;5075469;28;19964;-75
2021/12/04 16:43:44;;;;;;;;;;;;;;;;;;5075475;28;19913;-75
2021/12/04 16:46:12;;;;;;;;;;;;;;;;;;5074890;28;19909;-75
2021/12/04 16:48:42;;;;;;;;;;;;;;;;;;5075214;28;19915;-76
2021/12/04 16:58:50;;;;;;;;;;;;;;;;;;5075235;28;19908;-75
2021/12/04 17:01:16;;;;;;;;;;;;;;;;;;5075014;28;19916;-75
2021/12/04 17:03:41;;;;;;;;;;;;;;;;;;5075163;28;20431;-75
2021/12/04 17:06:07;;;;;;;;;;;;;;;;;;5075082;28;19908;-75
2021/12/04 17:08:33;;;;;;;;;;;;;;;;;;5074697;28;19948;-75
2021/12/04 17:10:59;;;;;;;;;;;;;;;;;;5074352;28;19920;-75
2021/12/04 17:13:25;;;;;;;;;;;;;;;;;;5074950;28;19978;-75
2021/12/04 17:15:52;;;;;;;;;;;;;;;;;;5074565;28;19909;-75
2021/12/04 17:18:20;;;;;;;;;;;;;;;;;;5074765;28;19916;-75
2021/12/04 17:20:46;;;;;;;;;;;;;;;;;;5074885;28;20403;-75
2021/12/04 17:23:12;;;;;;;;;;;;;;;;;;5074236;28;19912;-75
2021/12/04 17:25:40;;;;;;;;;;;;;;;;;;5074431;28;20333;-75
2021/12/04 17:28:06;;;;;;;;;;;;;;;;;;5074313;28;19908;-75
2021/12/04 17:30:31;;;;;;;;;;;;;;;;;;5056467;28;19923;-74
2021/12/04 17:32:57;;;;;;;;;;;;;;;;;;5056460;28;19915;-74
2021/12/04 17:35:23;;;;;;;;;;;;;;;;;;5073230;28;19915;-75
2021/12/04 17:37:50;;;;;;;;;;;;;;;;;;5073314;28;20300;-75
2021/12/04 17:40:17;;;;;;;;;;;;;;;;;;5074548;28;19970;-76
2021/12/04 17:42:43;;;;;;;;;;;;;;;;;;5074098;28;20360;-75
2021/12/04 17:45:09;;;;;;;;;;;;;;;;;;5074237;28;19912;-75
2021/12/04 17:47:41;;;;;;;;;;;;;;;;;;5074108;28;19908;-75
2021/12/04 17:50:07;;;;;;;;;;;;;;;;;;5074124;28;19916;-75
2021/12/04 17:52:32;;;;;;;;;;;;;;;;;;5074021;28;19909;-75
2021/12/04 17:54:58;;;;;;;;;;;;;;;;;;5056163;28;20281;-75
2021/12/04 17:57:25;;;;;;;;;;;;;;;;;;5074416;28;19913;-74
2021/12/04 17:59:51;;;;;;;;;;;;;;;;;;5056606;28;19905;-75
2021/12/04 18:02:17;;;;;;;;;;;;;;;;;;5074663;28;20360;-75
2021/12/04 18:04:43;;;;;;;;;;;;;;;;;;5074555;28;19915;-75
2021/12/04 18:07:08;;;;;;;;;;;;;;;;;;5074357;28;20399;-75
2021/12/04 18:09:34;;;;;;;;;;;;;;;;;;5056268;28;19921;-75
2021/12/04 18:12:00;;;;;;;;;;;;;;;;;;5074083;28;19990;-75
2021/12/04 18:14:26;;;;;;;;;;;;;;;;;;5073478;28;19955;-75
2021/12/04 18:16:52;;;;;;;;;;;;;;;;;;5073802;28;19908;-75
2021/12/04 18:19:18;;;;;;;;;;;;;;;;;;5074064;28;19962;-75
2021/12/04 18:21:44;;;;;;;;;;;;;;;;;;5074064;28;19908;-75
2021/12/04 18:24:10;;;;;;;;;;;;;;;;;;5073834;28;20392;-74
2021/12/04 18:26:36;;;;;;;;;;;;;;;;;;5073923;28;19955;-74
2021/12/04 18:29:02;;;;;;;;;;;;;;;;;;5055213;28;19917;-75
2021/12/04 18:31:28;;;;;;;;;;;;;;;;;;5073090;28;19920;-75
2021/12/04 18:33:55;;;;;;;;;;;;;;;;;;5073258;28;19913;-75
2021/12/04 18:36:21;;;;;;;;;;;;;;;;;;5073146;28;20341;-75
2021/12/04 18:38:46;;;;;;;;;;;;;;;;;;5073146;28;19909;-75
2021/12/04 18:41:12;;;;;;;;;;;;;;;;;;5073309;28;19956;-74
2021/12/04 18:43:43;;;;;;;;;;;;;;;;;;5073310;28;19924;-75
2021/12/04 18:46:09;;;;;;;;;;;;;;;;;;5073269;28;19999;-74
2021/12/04 18:48:36;;;;;;;;;;;;;;;;;;5054826;28;19908;-75
2021/12/04 18:51:02;;;;;;;;;;;;;;;;;;5073104;28;19954;-74
2021/12/04 18:53:28;;;;;;;;;;;;;;;;;;5072808;28;20331;-75
2021/12/04 18:55:54;;;;;;;;;;;;;;;;;;5073111;28;20003;-75
2021/12/04 18:58:20;;;;;;;;;;;;;;;;;;5073195;28;19915;-75
2021/12/04 19:00:46;;;;;;;;;;;;;;;;;;5073033;28;19908;-75
2021/12/04 19:03:12;;;;;;;;;;;;;;;;;;5072876;28;19912;-75
2021/12/04 19:05:38;;;;;;;;;;;;;;;;;;5073186;28;19930;-75
2021/12/04 19:08:04;;;;;;;;;;;;;;;;;;5072331;28;19912;-75
2021/12/04 19:10:29;;;;;;;;;;;;;;;;;;5073893;28;20391;-75
2021/12/04 19:12:58;;;;;;;;;;;;;;;;;;5083524;28;19977;-75
2021/12/04 19:15:26;;;;;;;;;;;;;;;;;;5080931;28;21310;-75
2021/12/04 19:17:54;;;;;;;;;;;;;;;;;;5083078;28;19912;-75
2021/12/04 19:20:20;;;;;;;;;;;;;;;;;;5080372;28;19912;-75
2021/12/04 19:22:46;;;;;;;;;;;;;;;;;;5083716;28;19916;-75
2021/12/04 19:25:12;;;;;;;;;;;;;;;;;;5080445;28;19996;-75
2021/12/04 19:27:38;;;;;;;;;;;;;;;;;;5065401;28;20280;-75
2021/12/04 19:30:05;;;;;;;;;;;;;;;;;;5081547;28;19920;-76
2021/12/04 19:32:32;;;;;;;;;;;;;;;;;;5082249;28;19912;-75
2021/12/04 19:35:26;;;;;;;;;;;;;;;;;;5082276;28;19912;-75
2021/12/04 19:49:18;;;;;;;;;;;;;;;;;;5077956;28;20493;-75
2021/12/04 19:51:45;;;;;;;;;;;;;;;;;;5075978;28;20078;-75
2021/12/04 19:54:27;;;;;;;;;;;;;;;;;;5083568;28;19918;-76
2021/12/04 19:56:56;;;;;;;;;;;;;;;;;;5078672;28;20003;-76
2021/12/04 19:59:22;;;;;;;;;;;;;;;;;;5082828;28;20318;-76
2021/12/04 20:02:07;;;;;;;;;;;;;;;;;;5082225;28;19912;-75
2021/12/04 20:13:07;;;;;;;;;;;;;;;;;;5085110;28;20254;-75
2021/12/04 20:13:32;;;;;;;;;;;;;;;;;;5080290;28;20029;-76
2021/12/04 20:15:52;;;;;;;;;;;;;;;;;;5081616;28;20407;-77
2021/12/04 20:18:18;;;;;;;;;;;;;;;;;;5069024;28;20014;-76
2021/12/04 20:20:47;;;;;;;;;;;;;;;;;;5083383;28;20279;-76